createdAt,value
2022-12-08T00:02:01.917Z,52.10
2022-12-08T00:04:50.678Z,53.38
2022-12-08T00:07:38.024Z,52.74
2022-12-08T00:10:39.642Z,53.52
2022-12-08T00:12:55.643Z,52.79
2022-12-08T00:15:24.021Z,52.89
2022-12-08T00:17:53.422Z,53.69
2022-12-08T00:20:21.919Z,53.49
2022-12-08T00:22:50.271Z,53.14
2022-12-08T00:25:18.677Z,53.66
2022-12-08T00:27:47.228Z,52.86
2022-12-08T00:30:15.760Z,52.94
2022-12-08T00:32:44.084Z,52.80
2022-12-08T00:35:12.574Z,54.51
2022-12-08T00:37:40.916Z,54.99
2022-12-08T00:40:09.665Z,54.91
2022-12-08T00:42:38.326Z,53.79
2022-12-08T00:45:09.121Z,53.84
2022-12-08T00:47:37.642Z,53.92
2022-12-08T00:50:07.198Z,53.76
2022-12-08T00:52:36.099Z,53.17
2022-12-08T00:55:05.198Z,53.39
2022-12-08T00:57:33.663Z,53.37
2022-12-08T01:00:02.499Z,53.18
2022-12-08T01:02:33.341Z,52.86
2022-12-08T01:05:01.748Z,52.90
2022-12-08T01:07:30.169Z,53.50
2022-12-08T01:09:58.695Z,52.84
2022-12-08T01:12:29.417Z,52.83
2022-12-08T01:15:02.068Z,52.35
2022-12-08T01:17:31.032Z,52.40
2022-12-08T01:19:59.700Z,52.69
2022-12-08T01:22:28.102Z,52.96
2022-12-08T01:24:56.605Z,52.81
2022-12-08T01:27:25.000Z,52.58
2022-12-08T01:29:53.390Z,52.37
2022-12-08T01:32:21.789Z,52.45
2022-12-08T01:34:50.163Z,52.30
2022-12-08T01:37:18.569Z,52.21
2022-12-08T01:39:46.915Z,52.41
2022-12-08T01:42:25.037Z,52.92
2022-12-08T01:45:00.166Z,52.48
2022-12-08T01:47:40.802Z,52.75
2022-12-08T01:50:13.076Z,52.66
2022-12-08T01:52:43.824Z,51.95
2022-12-08T01:55:23.255Z,52.80
2022-12-08T01:58:02.947Z,52.91
2022-12-08T02:00:32.378Z,53.17
2022-12-08T02:03:04.172Z,53.00
2022-12-08T02:05:36.619Z,53.23
2022-12-08T02:08:07.872Z,53.05
2022-12-08T02:10:40.211Z,52.70
2022-12-08T02:13:15.267Z,52.93
2022-12-08T02:16:08.980Z,52.77
2022-12-08T02:19:30.308Z,52.60
2022-12-08T02:22:04.933Z,55.64
2022-12-08T02:25:13.917Z,54.08
2022-12-08T02:28:10.228Z,53.43
2022-12-08T02:30:54.589Z,52.91
2022-12-08T02:33:38.283Z,52.78
2022-12-08T02:36:36.039Z,54.09
2022-12-08T02:39:42.179Z,53.56
2022-12-08T02:42:39.625Z,53.66
2022-12-08T02:45:44.993Z,52.90
2022-12-08T02:48:15.240Z,52.96
2022-12-08T02:50:43.691Z,53.59
2022-12-08T02:56:07.639Z,54.18
2022-12-08T02:58:37.015Z,55.01
2022-12-08T03:01:44.597Z,54.09
2022-12-08T03:04:43.305Z,54.34
2022-12-08T03:07:35.148Z,53.52
2022-12-08T03:10:17.979Z,53.29
2022-12-08T03:12:51.179Z,53.89
2022-12-08T03:15:21.728Z,54.00
2022-12-08T03:17:57.802Z,53.56
2022-12-08T03:20:29.938Z,53.33
2022-12-08T03:23:00.143Z,53.84
2022-12-08T03:25:32.985Z,53.88
2022-12-08T03:28:01.391Z,54.22
2022-12-08T03:30:36.457Z,54.51
2022-12-08T03:33:32.094Z,54.45
2022-12-08T03:36:04.682Z,54.40
2022-12-08T03:38:44.645Z,54.04
2022-12-08T03:41:19.029Z,54.44
2022-12-08T03:43:57.159Z,54.50
2022-12-08T03:48:56.546Z,54.44
2022-12-08T03:51:25.404Z,53.77
2022-12-08T03:53:54.007Z,53.61
2022-12-08T03:56:26.301Z,53.53
2022-12-08T03:58:55.493Z,53.81
2022-12-08T04:01:24.429Z,53.78
2022-12-08T04:03:53.340Z,53.67
2022-12-08T04:06:22.334Z,53.74
2022-12-08T04:08:51.282Z,53.92
2022-12-08T04:11:20.573Z,53.89
2022-12-08T04:13:49.037Z,54.09
2022-12-08T04:16:23.166Z,54.01
2022-12-08T04:18:51.652Z,54.07
2022-12-08T04:21:20.804Z,53.66
2022-12-08T04:23:50.528Z,53.29
2022-12-08T04:26:19.031Z,53.99
2022-12-08T04:28:47.467Z,54.29
2022-12-08T04:31:16.016Z,55.09
2022-12-08T04:33:44.971Z,54.49
2022-12-08T04:36:13.370Z,54.21
2022-12-08T04:38:42.731Z,54.87
2022-12-08T04:41:12.181Z,55.81
2022-12-08T04:43:41.551Z,55.23
2022-12-08T04:46:10.417Z,54.75
2022-12-08T04:48:40.327Z,53.70
2022-12-08T04:51:16.702Z,53.86
2022-12-08T04:53:46.900Z,53.54
2022-12-08T04:56:17.588Z,53.26
2022-12-08T04:58:46.968Z,53.74
2022-12-08T05:01:16.192Z,53.40
2022-12-08T05:03:45.654Z,53.38
2022-12-08T05:06:14.350Z,53.63
2022-12-08T05:08:43.653Z,54.13
2022-12-08T05:11:13.295Z,53.60
2022-12-08T05:13:41.741Z,54.60
2022-12-08T05:16:13.627Z,53.78
2022-12-08T05:18:42.957Z,53.45
2022-12-08T05:21:11.664Z,53.45
2022-12-08T05:23:40.130Z,53.50
2022-12-08T05:26:08.615Z,53.12
2022-12-08T05:28:41.815Z,52.78
2022-12-08T05:31:13.808Z,52.84
2022-12-08T05:33:43.508Z,52.53
2022-12-08T05:36:13.869Z,52.86
2022-12-08T05:38:43.909Z,52.72
2022-12-08T05:41:18.528Z,53.27
2022-12-08T05:43:47.625Z,52.67
2022-12-08T05:46:16.974Z,52.42
2022-12-08T05:48:45.567Z,52.58
2022-12-08T05:51:22.613Z,54.74
2022-12-08T05:53:52.510Z,54.30
2022-12-08T05:56:23.421Z,54.69
2022-12-08T05:58:51.902Z,54.27
2022-12-08T06:01:24.991Z,55.74
2022-12-08T06:03:54.483Z,54.76
2022-12-08T06:06:22.978Z,54.73
2022-12-08T06:08:51.466Z,53.48
2022-12-08T06:11:25.644Z,52.87
2022-12-08T06:13:56.142Z,52.45
2022-12-08T06:16:26.233Z,52.69
2022-12-08T06:18:55.366Z,53.52
2022-12-08T06:21:24.048Z,53.12
2022-12-08T06:23:54.463Z,52.51
2022-12-08T06:26:23.992Z,52.42
2022-12-08T06:28:52.645Z,52.52
2022-12-08T06:31:23.666Z,52.33
2022-12-08T06:33:54.219Z,52.28
2022-12-08T06:36:25.470Z,52.70
2022-12-08T06:38:55.564Z,52.56
2022-12-08T06:41:24.180Z,52.32
2022-12-08T06:43:57.165Z,52.49
2022-12-08T06:46:26.670Z,52.38
2022-12-08T06:48:55.202Z,52.58
2022-12-08T06:51:25.777Z,52.98
2022-12-08T06:53:54.191Z,54.65
2022-12-08T06:56:27.861Z,54.10
2022-12-08T06:58:56.227Z,53.92
2022-12-08T07:01:24.744Z,54.36
2022-12-08T07:03:54.292Z,53.72
2022-12-08T07:06:24.576Z,53.72
2022-12-08T07:08:53.048Z,53.13
2022-12-08T07:11:22.863Z,53.28
2022-12-08T07:13:51.502Z,54.48
2022-12-08T07:16:20.129Z,54.51
2022-12-08T07:18:49.478Z,53.93
2022-12-08T07:21:18.069Z,54.38
2022-12-08T07:23:52.737Z,53.32
2022-12-08T07:26:26.701Z,52.74
2022-12-08T07:28:55.208Z,53.09
2022-12-08T07:31:25.283Z,52.88
2022-12-08T07:33:55.154Z,53.05
2022-12-08T07:36:26.817Z,53.46
2022-12-08T07:38:55.345Z,53.08
2022-12-08T07:41:25.604Z,54.28
2022-12-08T07:43:55.375Z,55.33
2022-12-08T07:46:25.291Z,53.34
2022-12-08T07:48:55.275Z,53.11
2022-12-08T07:51:24.987Z,53.17
2022-12-08T07:53:54.981Z,53.14
2022-12-08T07:56:24.379Z,52.97
2022-12-08T07:58:53.018Z,53.29
2022-12-08T08:01:29.500Z,54.14
2022-12-08T08:04:01.755Z,53.15
2022-12-08T08:06:30.805Z,53.09
2022-12-08T08:08:59.655Z,53.95
2022-12-08T08:11:28.108Z,54.86
2022-12-08T08:13:57.406Z,54.52
2022-12-08T08:16:25.969Z,53.98
2022-12-08T08:18:54.425Z,53.76
2022-12-08T08:21:44.364Z,53.90
2022-12-08T08:24:11.553Z,52.83
2022-12-08T08:26:39.967Z,53.06
2022-12-08T08:29:08.431Z,54.71
2022-12-08T08:31:36.875Z,54.04
2022-12-08T08:34:06.329Z,53.75
2022-12-08T08:36:35.960Z,53.21
2022-12-08T08:39:04.470Z,53.47
2022-12-08T08:41:35.426Z,53.60
2022-12-08T08:44:04.409Z,53.92
2022-12-08T08:46:32.969Z,53.24
2022-12-08T08:49:01.499Z,53.39
2022-12-08T08:51:30.063Z,53.11
2022-12-08T08:53:58.554Z,54.04
2022-12-08T08:56:27.025Z,55.76
2022-12-08T08:58:55.583Z,56.42
2022-12-08T09:01:26.672Z,57.82
2022-12-08T09:03:56.214Z,56.20
2022-12-08T09:06:25.683Z,54.37
2022-12-08T09:08:54.223Z,53.82
2022-12-08T09:11:23.555Z,54.96
2022-12-08T09:13:53.823Z,56.66
2022-12-08T09:16:23.072Z,56.25
2022-12-08T09:18:52.015Z,55.25
2022-12-08T09:21:23.945Z,54.14
2022-12-08T09:23:57.360Z,54.42
2022-12-08T09:26:27.651Z,53.84
2022-12-08T09:28:57.335Z,53.60
2022-12-08T09:31:26.001Z,53.70
2022-12-08T09:33:55.050Z,53.84
2022-12-08T09:36:23.539Z,53.29
2022-12-08T09:38:53.671Z,53.39
2022-12-08T09:41:47.662Z,52.85
2022-12-08T09:44:38.737Z,52.60
2022-12-08T09:47:18.067Z,53.79
2022-12-08T09:49:52.995Z,53.88
2022-12-08T09:52:26.414Z,54.02
2022-12-08T09:54:59.583Z,53.78
2022-12-08T09:57:28.122Z,54.43
2022-12-08T10:00:04.444Z,53.61
2022-12-08T10:02:33.539Z,53.40
2022-12-08T10:05:02.050Z,52.89
2022-12-08T10:07:44.245Z,53.25
2022-12-08T10:10:26.342Z,53.34
2022-12-08T10:13:03.466Z,53.18
2022-12-08T10:15:33.089Z,53.44
2022-12-08T10:18:03.792Z,54.21
2022-12-08T10:20:38.584Z,53.72
2022-12-08T10:23:13.274Z,53.37
2022-12-08T10:25:46.325Z,53.66
2022-12-08T10:28:14.753Z,54.11
2022-12-08T10:30:43.409Z,54.30
2022-12-08T10:33:19.056Z,53.35
2022-12-08T10:35:51.474Z,53.25
2022-12-08T10:38:35.987Z,52.73
2022-12-08T10:41:11.301Z,52.36
2022-12-08T10:43:46.297Z,52.37
2022-12-08T10:46:19.247Z,52.27
2022-12-08T10:49:04.454Z,52.95
2022-12-08T10:51:32.892Z,52.53
2022-12-08T10:54:03.243Z,52.41
2022-12-08T10:56:33.127Z,52.22
2022-12-08T10:59:18.971Z,52.37
2022-12-08T11:01:52.930Z,52.56
2022-12-08T11:04:36.487Z,53.03
2022-12-08T11:07:06.652Z,52.96
2022-12-08T11:09:46.810Z,52.45
2022-12-08T11:12:17.861Z,52.50
2022-12-08T11:14:50.567Z,52.91
2022-12-08T11:17:22.041Z,53.02
2022-12-08T11:20:25.603Z,52.19
2022-12-08T11:22:56.056Z,52.26
2022-12-08T11:25:28.288Z,52.08
2022-12-08T11:27:57.530Z,52.83
2022-12-08T11:30:36.177Z,52.64
2022-12-08T11:33:25.535Z,53.28
2022-12-08T11:35:57.033Z,53.50
2022-12-08T11:38:27.753Z,53.48
2022-12-08T11:41:16.188Z,52.64
2022-12-08T11:43:54.769Z,53.37
2022-12-08T11:46:28.561Z,55.53
2022-12-08T11:49:06.214Z,54.69
2022-12-08T11:51:43.744Z,53.26
2022-12-08T11:54:30.553Z,53.11
2022-12-08T11:57:05.829Z,52.66
2022-12-08T11:59:46.084Z,52.73
2022-12-08T12:02:25.404Z,53.21
2022-12-08T12:08:58.200Z,52.93
2022-12-08T12:12:08.349Z,53.03
2022-12-08T12:14:51.748Z,54.44
2022-12-08T12:17:35.287Z,54.03
2022-12-08T12:20:15.122Z,54.08
2022-12-08T12:22:48.445Z,53.87
2022-12-08T12:25:20.789Z,54.01
2022-12-08T12:27:57.067Z,53.68
2022-12-08T12:30:28.475Z,52.83
2022-12-08T12:33:00.278Z,54.54
2022-12-08T12:35:32.399Z,53.94
2022-12-08T12:38:26.528Z,53.43
2022-12-08T12:41:04.277Z,54.27
2022-12-08T12:43:38.435Z,54.03
2022-12-08T12:46:24.912Z,53.97
2022-12-08T12:48:53.575Z,54.18
2022-12-08T12:51:45.430Z,55.13
2022-12-08T12:54:23.323Z,53.58
2022-12-08T12:56:57.065Z,53.31
2022-12-08T12:59:55.648Z,53.35
2022-12-08T13:02:36.471Z,52.88
2022-12-08T13:05:27.138Z,52.75
2022-12-08T13:08:21.344Z,53.23
2022-12-08T13:11:00.967Z,52.72
2022-12-08T13:13:29.831Z,53.00
2022-12-08T13:16:18.810Z,53.24
2022-12-08T13:18:50.924Z,53.56
2022-12-08T13:21:22.686Z,52.76
2022-12-08T13:24:10.028Z,52.63
2022-12-08T13:26:49.856Z,52.74
2022-12-08T13:29:26.205Z,52.95
2022-12-08T13:32:00.080Z,52.60
2022-12-08T13:34:34.480Z,52.43
2022-12-08T13:37:12.350Z,52.23
2022-12-08T13:39:40.793Z,52.26
2022-12-08T13:42:13.262Z,52.40
2022-12-08T13:45:20.086Z,53.13
2022-12-08T13:48:30.107Z,52.36
2022-12-08T13:57:32.789Z,52.11
2022-12-08T14:00:22.605Z,51.83
2022-12-08T14:02:57.938Z,51.63
2022-12-08T14:06:10.335Z,51.75
2022-12-08T14:08:58.801Z,51.40
2022-12-08T14:11:58.281Z,51.68
2022-12-08T14:15:01.141Z,51.75
2022-12-08T14:17:23.051Z,51.70
2022-12-08T14:20:01.101Z,51.60
2022-12-08T14:22:37.643Z,51.30
2022-12-08T14:25:11.459Z,51.36
2022-12-08T14:27:39.950Z,51.39
2022-12-08T14:30:14.862Z,50.88
2022-12-08T14:32:47.882Z,51.43
2022-12-08T14:35:30.087Z,51.41
2022-12-08T14:38:05.607Z,51.56
2022-12-08T14:40:39.449Z,51.65
2022-12-08T14:43:07.800Z,51.77
2022-12-08T14:45:39.255Z,51.66
2022-12-08T14:48:25.591Z,51.46
2022-12-08T14:51:07.755Z,51.27
2022-12-08T14:53:49.747Z,50.80
2022-12-08T14:56:36.306Z,51.08
2022-12-08T14:59:12.059Z,51.43
2022-12-08T15:01:41.741Z,51.49
2022-12-08T15:04:13.116Z,51.34
2022-12-08T15:06:52.410Z,51.68
2022-12-08T15:09:34.548Z,51.12
2022-12-08T15:12:06.273Z,50.77
2022-12-08T15:14:37.203Z,50.58
2022-12-08T15:17:40.468Z,51.69
2022-12-08T15:20:35.589Z,51.52
2022-12-08T15:23:05.079Z,51.82
2022-12-08T15:25:33.822Z,51.69
2022-12-08T15:28:03.167Z,51.99
2022-12-08T15:30:31.777Z,52.20
2022-12-08T15:33:00.196Z,51.76
2022-12-08T15:35:28.704Z,51.64
2022-12-08T15:37:58.101Z,51.86
2022-12-08T15:40:27.340Z,51.80
2022-12-08T15:42:55.951Z,51.81
2022-12-08T15:45:31.760Z,52.10
2022-12-08T15:48:01.112Z,51.89
2022-12-08T15:50:29.511Z,51.55
2022-12-08T15:52:58.013Z,51.22
2022-12-08T15:55:27.045Z,51.45
2022-12-08T16:00:53.825Z,50.91
2022-12-08T16:04:13.889Z,51.17
2022-12-08T16:07:04.769Z,51.73
2022-12-08T16:09:23.479Z,51.54
2022-12-08T16:12:10.748Z,51.92
2022-12-08T16:17:30.467Z,51.16
2022-12-08T16:19:59.394Z,50.92
2022-12-08T16:25:21.378Z,51.32
2022-12-08T16:28:08.354Z,51.04
2022-12-08T16:30:42.076Z,51.32
2022-12-08T16:33:12.457Z,51.09
2022-12-08T16:35:41.905Z,50.67
2022-12-08T16:38:16.516Z,50.69
2022-12-08T16:41:07.155Z,51.17
2022-12-08T16:43:35.708Z,50.81
2022-12-08T16:46:04.489Z,50.99
2022-12-08T16:48:33.116Z,50.72
2022-12-08T16:51:04.420Z,50.60
2022-12-08T16:53:32.899Z,50.69
2022-12-08T16:56:01.278Z,50.80
2022-12-08T16:58:30.042Z,50.09
2022-12-08T17:00:58.508Z,50.74
2022-12-08T17:03:26.950Z,50.54
2022-12-08T17:05:55.407Z,50.27
2022-12-08T17:08:23.863Z,50.83
2022-12-08T17:11:07.289Z,51.15
2022-12-08T17:13:38.541Z,50.84
2022-12-08T17:16:17.712Z,50.61
2022-12-08T17:18:46.839Z,50.68
2022-12-08T17:21:17.831Z,50.88
2022-12-08T17:23:46.965Z,50.97
2022-12-08T17:26:15.504Z,50.66
2022-12-08T17:28:59.971Z,50.90
2022-12-08T17:31:32.052Z,50.75
2022-12-08T17:34:02.276Z,50.85
2022-12-08T17:36:30.805Z,50.83
2022-12-08T17:39:00.892Z,50.80
2022-12-08T17:41:30.481Z,51.14
2022-12-08T17:43:59.000Z,51.44
2022-12-08T17:46:27.427Z,51.31
2022-12-08T17:48:56.003Z,50.71
2022-12-08T17:51:25.404Z,50.83
2022-12-08T17:53:53.809Z,50.74
2022-12-08T17:56:22.447Z,50.42
2022-12-08T17:58:54.633Z,51.06
2022-12-08T18:01:24.108Z,50.75
2022-12-08T18:03:52.584Z,50.57
2022-12-08T18:06:25.707Z,50.73
2022-12-08T18:09:00.991Z,50.99
2022-12-08T18:11:29.492Z,51.66
2022-12-08T18:13:59.352Z,52.07
2022-12-08T18:16:28.831Z,51.74
2022-12-08T18:18:57.300Z,51.24
2022-12-08T18:21:26.675Z,51.02
2022-12-08T18:23:56.100Z,50.94
2022-12-08T18:26:24.722Z,51.08
2022-12-08T18:28:53.146Z,50.82
2022-12-08T18:31:22.653Z,51.12
2022-12-08T18:33:52.485Z,51.76
2022-12-08T18:36:24.293Z,51.69
2022-12-08T18:38:53.333Z,51.84
2022-12-08T18:41:25.592Z,51.73
2022-12-08T18:43:54.523Z,51.35
2022-12-08T18:46:24.081Z,51.33
2022-12-08T18:48:52.895Z,51.16
2022-12-08T18:51:23.796Z,51.04
2022-12-08T18:53:52.938Z,51.20
2022-12-08T18:56:27.765Z,51.17
2022-12-08T18:59:02.876Z,50.97
2022-12-08T19:01:34.065Z,50.76
2022-12-08T19:04:27.208Z,50.92
2022-12-08T19:06:53.433Z,50.60
2022-12-08T19:09:22.631Z,50.78
2022-12-08T19:11:51.123Z,51.67
2022-12-08T19:14:27.229Z,51.22
2022-12-08T19:16:57.826Z,51.43
2022-12-08T19:19:27.357Z,51.33
2022-12-08T19:21:56.912Z,51.06
2022-12-08T19:24:25.719Z,50.88
2022-12-08T19:26:54.178Z,50.56
2022-12-08T19:29:23.652Z,50.38
2022-12-08T19:31:52.479Z,50.42
2022-12-08T19:34:21.064Z,50.79
2022-12-08T19:36:49.529Z,50.94
2022-12-08T19:39:39.271Z,51.00
2022-12-08T19:42:33.392Z,50.77
2022-12-08T19:45:07.961Z,50.95
2022-12-08T19:47:36.437Z,51.09
2022-12-08T19:50:25.529Z,51.27
2022-12-08T19:52:54.742Z,50.96
2022-12-08T19:55:24.793Z,50.88
2022-12-08T19:57:54.367Z,50.86
2022-12-08T20:00:23.380Z,51.10
2022-12-08T20:02:52.877Z,50.67
2022-12-08T20:05:21.847Z,50.95
2022-12-08T20:07:50.565Z,50.80
2022-12-08T20:10:22.865Z,50.77
2022-12-08T20:12:51.171Z,50.51
2022-12-08T20:15:20.607Z,50.92
2022-12-08T20:17:49.198Z,50.75
2022-12-08T20:20:18.634Z,50.77
2022-12-08T20:22:48.680Z,50.91
2022-12-08T20:25:17.268Z,50.78
2022-12-08T20:27:45.809Z,50.41
2022-12-08T20:30:17.263Z,51.40
2022-12-08T20:32:46.107Z,51.38
2022-12-08T20:35:15.266Z,51.16
2022-12-08T20:37:43.775Z,51.00
2022-12-08T20:40:12.492Z,51.06
2022-12-08T20:42:40.914Z,50.80
2022-12-08T20:45:10.034Z,50.94
2022-12-08T20:47:38.704Z,50.97
2022-12-08T20:50:08.060Z,51.04
2022-12-08T20:52:37.938Z,50.84
2022-12-08T20:55:07.854Z,50.70
2022-12-08T20:57:36.408Z,51.19
2022-12-08T21:00:06.720Z,51.36
2022-12-08T21:02:35.574Z,51.18
2022-12-08T21:05:04.639Z,50.69
2022-12-08T21:07:33.985Z,50.81
2022-12-08T21:10:03.961Z,50.41
2022-12-08T21:12:33.405Z,50.50
2022-12-08T21:15:01.988Z,50.66
2022-12-08T21:17:30.576Z,50.36
2022-12-08T21:19:59.020Z,50.52
2022-12-08T21:22:28.384Z,50.54
2022-12-08T21:24:56.927Z,50.59
2022-12-08T21:27:25.465Z,50.65
2022-12-08T21:29:54.132Z,50.52
2022-12-08T21:32:28.631Z,50.26
2022-12-08T21:34:58.976Z,50.66
2022-12-08T21:37:27.422Z,50.60
2022-12-08T21:39:55.989Z,50.42
2022-12-08T21:42:43.454Z,50.49
2022-12-08T21:45:16.318Z,50.50
2022-12-08T21:47:47.705Z,50.81
2022-12-08T21:50:17.373Z,50.52
2022-12-08T21:52:48.372Z,50.61
2022-12-08T21:55:19.139Z,50.69
2022-12-08T21:57:48.831Z,50.36
2022-12-08T22:00:18.977Z,50.38
2022-12-08T22:02:48.574Z,50.73
2022-12-08T22:05:17.388Z,50.49
2022-12-08T22:07:46.118Z,50.51
2022-12-08T22:10:14.745Z,50.65
2022-12-08T22:12:43.549Z,50.51
2022-12-08T22:15:12.458Z,50.46
2022-12-08T22:17:43.132Z,50.91
2022-12-08T22:20:14.237Z,50.57
2022-12-08T22:22:42.901Z,50.78
2022-12-08T22:25:13.718Z,50.29
2022-12-08T22:27:42.238Z,50.61
2022-12-08T22:30:11.873Z,50.60
2022-12-08T22:32:41.888Z,50.81
2022-12-08T22:35:12.061Z,50.71
2022-12-08T22:37:40.843Z,50.85
2022-12-08T22:40:10.602Z,50.47
2022-12-08T22:42:40.105Z,50.63
2022-12-08T22:45:09.344Z,50.35
2022-12-08T22:47:38.880Z,50.17
2022-12-08T22:50:07.904Z,50.69
2022-12-08T22:52:36.633Z,50.21
2022-12-08T22:55:05.648Z,50.53
2022-12-08T22:57:34.091Z,50.17
2022-12-08T23:00:03.536Z,49.97
2022-12-08T23:02:32.110Z,50.38
2022-12-08T23:05:00.709Z,50.21
2022-12-08T23:07:29.294Z,50.23
2022-12-08T23:09:57.699Z,50.47
2022-12-08T23:12:26.298Z,50.40
2022-12-08T23:14:55.956Z,50.18
2022-12-08T23:17:25.156Z,50.38
2022-12-08T23:19:55.193Z,50.31
2022-12-08T23:22:24.597Z,50.43
2022-12-08T23:24:53.134Z,50.37
2022-12-08T23:27:22.501Z,50.65
2022-12-08T23:29:52.255Z,50.77
2022-12-08T23:32:20.897Z,51.13
2022-12-08T23:34:49.549Z,50.68
2022-12-08T23:37:17.991Z,50.37
2022-12-08T23:39:46.437Z,50.81
2022-12-08T23:42:14.906Z,50.23
2022-12-08T23:44:44.325Z,49.96
2022-12-08T23:47:12.927Z,50.28
2022-12-08T23:49:41.567Z,50.48
2022-12-08T23:52:13.391Z,50.16
2022-12-08T23:54:44.428Z,49.89
2022-12-08T23:57:13.970Z,50.26
2022-12-08T23:59:42.348Z,50.47
